createdAt,value
2018-04-17T00:02:31.824Z,99.70
2018-04-17T00:06:35.098Z,99.90
2018-04-17T00:10:37.611Z,99.70
2018-04-17T00:14:49.963Z,99.80
2018-04-17T00:18:52.485Z,99.90
2018-04-17T00:22:55.042Z,99.80
2018-04-17T00:27:00.203Z,99.90
2018-04-17T00:31:02.742Z,99.80
2018-04-17T00:35:07.170Z,99.90
2018-04-17T00:39:09.718Z,99.90
2018-04-17T00:43:12.232Z,99.90
2018-04-17T00:47:14.771Z,99.90
2018-04-17T00:51:17.288Z,99.90
2018-04-17T00:55:19.835Z,99.90
2018-04-17T00:59:22.348Z,99.90
2018-04-17T01:03:24.888Z,99.90
2018-04-17T01:07:27.400Z,99.90
2018-04-17T01:11:29.958Z,99.90
2018-04-17T01:15:32.462Z,99.90
2018-04-17T01:19:35.002Z,99.90
2018-04-17T01:23:38.279Z,99.40
2018-04-17T01:27:40.826Z,99.40
2018-04-17T01:31:44.107Z,99.90
2018-04-17T01:35:46.667Z,99.90
2018-04-17T01:39:49.177Z,99.90
2018-04-17T01:43:51.719Z,99.90
2018-04-17T01:47:55.247Z,99.90
2018-04-17T01:51:57.891Z,99.90
2018-04-17T01:56:00.407Z,99.90
2018-04-17T02:00:03.803Z,99.90
2018-04-17T02:04:06.319Z,99.90
2018-04-17T02:08:09.160Z,99.90
2018-04-17T02:12:12.435Z,99.90
2018-04-17T02:16:14.978Z,99.90
2018-04-17T02:20:18.447Z,99.90
2018-04-17T02:24:21.001Z,99.90
2018-04-17T02:28:23.518Z,99.90
2018-04-17T02:32:26.064Z,99.90
2018-04-17T02:36:28.581Z,99.90
2018-04-17T02:40:31.124Z,99.90
2018-04-17T02:44:34.495Z,99.90
2018-04-17T02:48:37.044Z,99.90
2018-04-17T02:52:39.555Z,99.90
2018-04-17T02:56:42.127Z,99.90
2018-04-17T03:00:44.657Z,99.90
2018-04-17T03:04:47.204Z,99.90
2018-04-17T03:08:49.727Z,99.90
2018-04-17T03:12:52.355Z,99.90
2018-04-17T03:16:54.867Z,99.90
2018-04-17T03:21:01.717Z,99.90
2018-04-17T03:25:04.991Z,99.90
2018-04-17T03:29:07.539Z,99.90
2018-04-17T03:33:10.824Z,99.90
2018-04-17T03:37:13.368Z,99.90
2018-04-17T03:41:15.912Z,99.90
2018-04-17T03:45:18.495Z,99.90
2018-04-17T03:49:21.023Z,99.90
2018-04-17T03:53:23.580Z,99.90
2018-04-17T03:57:31.355Z,99.90
2018-04-17T04:01:33.907Z,99.90
2018-04-17T04:05:36.426Z,99.90
2018-04-17T04:09:39.819Z,99.90
2018-04-17T04:13:42.321Z,99.90
2018-04-17T04:17:56.955Z,99.90
2018-04-17T04:22:11.272Z,99.90
2018-04-17T04:26:25.564Z,99.90
2018-04-17T04:30:28.071Z,99.90
2018-04-17T04:34:32.556Z,99.90
2018-04-17T04:38:42.047Z,99.90
2018-04-17T04:42:44.608Z,99.90
2018-04-17T04:46:47.234Z,99.90
2018-04-17T04:50:50.539Z,99.90
2018-04-17T04:54:57.622Z,99.90
2018-04-17T04:59:00.160Z,99.90
2018-04-17T05:03:02.674Z,99.90
2018-04-17T05:07:05.223Z,99.90
2018-04-17T05:11:07.748Z,99.90
2018-04-17T05:15:10.284Z,99.90
2018-04-17T05:19:12.824Z,99.90
2018-04-17T05:23:16.156Z,99.90
2018-04-17T05:27:18.674Z,99.90
2018-04-17T05:31:21.450Z,99.90
2018-04-17T05:35:26.674Z,99.90
2018-04-17T05:39:29.258Z,99.90
2018-04-17T05:43:31.776Z,99.90
2018-04-17T05:47:34.439Z,99.90
2018-04-17T05:51:36.950Z,99.90
2018-04-17T05:55:39.504Z,99.90
2018-04-17T05:59:42.030Z,99.90
2018-04-17T06:03:47.015Z,99.90
2018-04-17T06:07:50.294Z,99.90
2018-04-17T06:11:53.004Z,99.90
2018-04-17T06:15:57.451Z,99.90
2018-04-17T06:20:00.090Z,99.90
2018-04-17T06:24:02.612Z,99.90
2018-04-17T06:28:06.012Z,99.90
2018-04-17T06:32:08.553Z,99.90
2018-04-17T06:36:11.918Z,99.90
2018-04-17T06:40:14.527Z,99.90
2018-04-17T06:44:17.065Z,99.90
2018-04-17T06:48:19.586Z,99.90
2018-04-17T06:52:22.139Z,99.90
2018-04-17T06:56:24.652Z,99.90
2018-04-17T07:00:29.220Z,99.80
2018-04-17T07:04:31.734Z,99.10
2018-04-17T07:08:47.271Z,99.00
2018-04-17T07:12:50.560Z,99.10
2018-04-17T07:16:56.251Z,99.00
2018-04-17T07:21:03.448Z,98.00
2018-04-17T07:25:06.010Z,98.50
2018-04-17T07:29:09.286Z,97.10
2018-04-17T07:33:11.836Z,97.10
2018-04-17T07:37:15.181Z,90.00
2018-04-17T07:41:17.750Z,90.00
2018-04-17T07:45:20.266Z,88.70
2018-04-17T07:49:23.643Z,81.50
2018-04-17T07:53:26.203Z,81.40
2018-04-17T07:57:29.522Z,65.50
2018-04-17T08:01:32.807Z,63.60
2018-04-17T08:05:39.845Z,63.30
2018-04-17T08:09:54.756Z,64.90
2018-04-17T08:13:58.067Z,62.40
2018-04-17T08:18:01.351Z,60.00
2018-04-17T08:22:03.986Z,59.90
2018-04-17T08:26:06.497Z,56.20
2018-04-17T08:30:10.024Z,54.50
2018-04-17T08:34:12.543Z,56.40
2018-04-17T08:38:15.855Z,49.80
2018-04-17T08:42:18.375Z,49.80
2018-04-17T08:46:23.622Z,53.20
2018-04-17T08:50:26.933Z,48.10
2018-04-17T08:54:29.928Z,48.10
2018-04-17T08:58:32.431Z,51.60
2018-04-17T09:02:35.103Z,50.90
2018-04-17T09:06:37.634Z,53.40
2018-04-17T09:10:40.263Z,49.50
2018-04-17T09:14:42.783Z,48.40
2018-04-17T09:18:45.706Z,47.40
2018-04-17T09:22:48.224Z,44.80
2018-04-17T09:26:51.539Z,45.30
2018-04-17T09:30:58.808Z,44.10
2018-04-17T09:35:01.353Z,44.00
2018-04-17T09:39:05.806Z,44.30
2018-04-17T09:43:08.623Z,44.70
2018-04-17T09:47:11.210Z,47.10
2018-04-17T09:51:13.770Z,47.60
2018-04-17T09:55:16.399Z,49.30
2018-04-17T09:59:19.389Z,51.60
2018-04-17T10:03:21.928Z,50.80
2018-04-17T10:07:24.565Z,52.30
2018-04-17T10:11:29.090Z,52.70
2018-04-17T10:15:31.638Z,53.40
2018-04-17T10:19:34.157Z,51.70
2018-04-17T10:23:37.480Z,53.10
2018-04-17T10:27:39.999Z,53.20
2018-04-17T10:31:42.867Z,54.50
2018-04-17T10:35:45.406Z,54.20
2018-04-17T10:39:48.779Z,54.10
2018-04-17T10:43:51.298Z,54.10
2018-04-17T10:47:56.907Z,53.50
2018-04-17T10:51:59.455Z,54.80
2018-04-17T10:56:03.138Z,55.20
2018-04-17T11:00:05.722Z,55.20
2018-04-17T11:04:11.547Z,59.20
2018-04-17T11:08:14.080Z,59.20
2018-04-17T11:12:17.414Z,56.20
2018-04-17T11:16:20.786Z,52.30
2018-04-17T11:20:23.766Z,52.30
2018-04-17T11:24:26.372Z,58.20
2018-04-17T11:28:31.184Z,53.40
2018-04-17T11:32:33.702Z,47.60
2018-04-17T11:36:36.346Z,50.10
2018-04-17T11:40:39.798Z,49.30
2018-04-17T11:44:44.274Z,50.80
2018-04-17T11:48:46.795Z,46.50
2018-04-17T11:52:49.723Z,50.30
2018-04-17T11:56:54.945Z,51.50
2018-04-17T12:00:59.509Z,51.10
2018-04-17T12:05:02.027Z,49.80
2018-04-17T12:09:07.817Z,54.50
2018-04-17T12:13:10.400Z,47.80
2018-04-17T12:17:12.954Z,52.80
2018-04-17T12:21:17.234Z,45.70
2018-04-17T12:25:19.860Z,45.70
2018-04-17T12:29:23.383Z,46.00
2018-04-17T12:33:25.938Z,49.00
2018-04-17T12:37:31.171Z,45.60
2018-04-17T12:41:35.745Z,45.60
2018-04-17T12:45:38.271Z,51.00
2018-04-17T12:49:42.667Z,48.50
2018-04-17T12:53:45.305Z,48.50
2018-04-17T12:57:51.583Z,50.60
2018-04-17T13:01:56.118Z,51.10
2018-04-17T13:05:58.659Z,51.50
2018-04-17T13:10:05.034Z,51.80
2018-04-17T13:14:11.330Z,54.30
2018-04-17T13:18:14.015Z,53.10
2018-04-17T13:22:16.940Z,54.30
2018-04-17T13:26:19.463Z,53.90
2018-04-17T13:30:22.019Z,52.70
2018-04-17T13:34:24.589Z,51.70
2018-04-17T13:38:27.946Z,53.50
2018-04-17T13:42:31.398Z,53.40
2018-04-17T13:46:35.919Z,52.90
2018-04-17T13:50:38.481Z,52.80
2018-04-17T13:54:41.183Z,53.60
2018-04-17T13:58:43.725Z,52.20
2018-04-17T14:02:47.061Z,54.00
2018-04-17T14:06:49.604Z,54.00
2018-04-17T14:10:54.379Z,48.90
2018-04-17T14:14:58.809Z,51.50
2018-04-17T14:19:04.414Z,50.40
2018-04-17T14:23:06.941Z,50.40
2018-04-17T14:27:09.479Z,52.90
2018-04-17T14:31:12.991Z,50.80
2018-04-17T14:35:16.298Z,50.00
2018-04-17T14:39:19.815Z,49.40
2018-04-17T14:43:22.387Z,49.40
2018-04-17T14:47:25.726Z,50.20
2018-04-17T14:51:29.061Z,49.00
2018-04-17T14:55:31.638Z,49.10
2018-04-17T14:59:34.263Z,49.40
2018-04-17T15:03:37.530Z,51.30
2018-04-17T15:07:40.834Z,52.10
2018-04-17T15:11:49.970Z,52.10
2018-04-17T15:15:53.520Z,48.90
2018-04-17T15:19:57.019Z,47.30
2018-04-17T15:23:59.568Z,50.60
2018-04-17T15:28:03.866Z,48.30
2018-04-17T15:32:07.315Z,50.70
2018-04-17T15:36:09.833Z,50.70
2018-04-17T15:40:12.369Z,52.00
2018-04-17T15:44:15.641Z,49.70
2018-04-17T15:48:19.038Z,48.60
2018-04-17T15:52:21.579Z,48.60
2018-04-17T15:56:24.184Z,48.90
2018-04-17T16:00:26.697Z,47.70
2018-04-17T16:04:29.580Z,48.10
2018-04-17T16:08:32.094Z,52.40
2018-04-17T16:12:34.636Z,48.00
2018-04-17T16:16:37.931Z,50.60
2018-04-17T16:20:40.470Z,50.50
2018-04-17T16:24:42.980Z,49.70
2018-04-17T16:28:46.290Z,49.80
2018-04-17T16:32:48.794Z,49.80
2018-04-17T16:36:51.338Z,49.00
2018-04-17T16:40:54.785Z,50.20
2018-04-17T16:44:57.650Z,51.80
2018-04-17T16:49:01.018Z,48.90
2018-04-17T16:53:04.487Z,48.90
2018-04-17T16:57:07.055Z,51.60
2018-04-17T17:01:09.606Z,52.30
2018-04-17T17:05:12.122Z,50.60
2018-04-17T17:09:17.792Z,50.80
2018-04-17T17:13:22.310Z,50.10
2018-04-17T17:17:24.854Z,50.00
2018-04-17T17:21:27.398Z,51.50
2018-04-17T17:25:30.032Z,50.90
2018-04-17T17:29:32.553Z,51.20
2018-04-17T17:33:35.138Z,52.40
2018-04-17T17:37:39.643Z,58.30
2018-04-17T17:41:42.951Z,52.80
2018-04-17T17:45:48.632Z,52.60
2018-04-17T17:49:53.984Z,55.00
2018-04-17T17:53:56.548Z,55.10
2018-04-17T17:57:59.095Z,54.30
2018-04-17T18:02:01.619Z,56.20
2018-04-17T18:06:04.202Z,58.40
2018-04-17T18:10:06.761Z,59.70
2018-04-17T18:14:11.294Z,60.00
2018-04-17T18:18:15.639Z,64.90
2018-04-17T18:22:20.882Z,70.80
2018-04-17T18:26:26.540Z,70.60
2018-04-17T18:30:29.087Z,75.50
2018-04-17T18:34:32.405Z,80.00
2018-04-17T18:38:34.987Z,79.90
2018-04-17T18:42:39.442Z,82.40
2018-04-17T18:46:42.299Z,84.20
2018-04-17T18:50:46.607Z,82.00
2018-04-17T18:54:49.165Z,81.90
2018-04-17T18:58:51.690Z,85.00
2018-04-17T19:02:57.938Z,86.70
2018-04-17T19:07:02.230Z,89.30
2018-04-17T19:11:04.772Z,89.20
2018-04-17T19:15:17.389Z,90.00
2018-04-17T19:19:19.941Z,90.50
2018-04-17T19:23:25.172Z,91.60
2018-04-17T19:27:28.543Z,91.60
2018-04-17T19:31:34.974Z,92.20
2018-04-17T19:35:37.831Z,92.20
2018-04-17T19:39:40.362Z,92.30
2018-04-17T19:43:42.934Z,92.40
2018-04-17T19:47:45.442Z,92.60
2018-04-17T19:51:52.566Z,92.80
2018-04-17T19:55:56.867Z,92.80
2018-04-17T19:59:59.437Z,93.00
2018-04-17T20:04:02.894Z,93.50
2018-04-17T20:08:05.762Z,93.80
2018-04-17T20:12:09.046Z,93.80
2018-04-17T20:16:11.588Z,93.80
2018-04-17T20:20:14.871Z,94.40
2018-04-17T20:24:17.717Z,94.40
2018-04-17T20:28:20.240Z,94.70
2018-04-17T20:32:23.554Z,94.50
2018-04-17T20:36:26.074Z,94.40
2018-04-17T20:40:29.407Z,95.00
2018-04-17T20:44:32.874Z,94.90
2018-04-17T20:48:40.419Z,95.20
2018-04-17T20:52:42.935Z,94.80
2018-04-17T20:56:48.212Z,95.60
2018-04-17T21:00:51.496Z,96.00
2018-04-17T21:04:54.135Z,96.00
2018-04-17T21:08:56.675Z,95.60
2018-04-17T21:12:59.230Z,95.20
2018-04-17T21:17:01.770Z,95.70
2018-04-17T21:21:10.081Z,95.90
2018-04-17T21:25:12.600Z,95.90
2018-04-17T21:29:15.907Z,96.30
2018-04-17T21:33:18.436Z,96.20
2018-04-17T21:37:21.800Z,96.90
2018-04-17T21:41:28.928Z,96.90
2018-04-17T21:45:33.606Z,96.30
2018-04-17T21:49:36.135Z,95.70
2018-04-17T21:53:39.450Z,95.60
2018-04-17T21:57:41.959Z,95.50
2018-04-17T22:01:44.505Z,96.20
2018-04-17T22:05:47.030Z,96.50
2018-04-17T22:09:49.593Z,97.10
2018-04-17T22:13:52.159Z,97.20
2018-04-17T22:17:54.785Z,97.20
2018-04-17T22:21:59.127Z,97.70
2018-04-17T22:26:01.790Z,97.60
2018-04-17T22:30:05.287Z,97.60
2018-04-17T22:34:08.679Z,97.30
2018-04-17T22:38:11.195Z,97.30
2018-04-17T22:42:13.754Z,97.60
2018-04-17T22:46:16.378Z,97.10
2018-04-17T22:50:20.072Z,97.60
2018-04-17T22:54:22.590Z,98.20
2018-04-17T22:58:25.330Z,98.00
2018-04-17T23:02:27.985Z,97.70
2018-04-17T23:06:31.301Z,97.90
2018-04-17T23:10:33.870Z,97.90
2018-04-17T23:14:36.917Z,97.90
2018-04-17T23:18:39.607Z,98.40
2018-04-17T23:22:42.574Z,98.70
2018-04-17T23:26:45.098Z,97.80
2018-04-17T23:30:47.722Z,98.20
2018-04-17T23:34:50.238Z,98.50
2018-04-17T23:38:52.792Z,98.90
2018-04-17T23:42:55.307Z,98.00
2018-04-17T23:46:57.862Z,98.40
2018-04-17T23:51:00.390Z,98.20
2018-04-17T23:55:03.711Z,99.10
2018-04-17T23:59:06.999Z,99.90
